sensor_id;sensor_type;location;lat;lon;timestamp;pressure;altitude;pressure_sealevel;temperature;humidity
61128;BME280;47013;42.664;23.242;2024-02-21T00:02:22;94605.31;;;5.62;91.25
61128;BME280;47013;42.664;23.242;2024-02-21T00:04:48;94606.97;;;5.70;91.01
61128;BME280;47013;42.664;23.242;2024-02-21T00:07:13;94606.69;;;5.75;90.71
61128;BME280;47013;42.664;23.242;2024-02-21T00:09:39;94613.31;;;5.81;90.18
61128;BME280;47013;42.664;23.242;2024-02-21T00:12:04;94594.06;;;5.79;89.79
61128;BME280;47013;42.664;23.242;2024-02-21T00:14:30;94599.59;;;5.86;89.80
61128;BME280;47013;42.664;23.242;2024-02-21T00:16:56;94602.38;;;5.90;89.55
61128;BME280;47013;42.664;23.242;2024-02-21T00:19:21;94604.34;;;5.93;89.38
61128;BME280;47013;42.664;23.242;2024-02-21T00:21:46;94590.94;;;5.97;89.15
61128;BME280;47013;42.664;23.242;2024-02-21T00:24:12;94592.91;;;6.00;89.27
61128;BME280;47013;42.664;23.242;2024-02-21T00:26:37;94591.69;;;5.97;88.74
61128;BME280;47013;42.664;23.242;2024-02-21T00:29:02;94584.34;;;5.94;89.28
61128;BME280;47013;42.664;23.242;2024-02-21T00:31:28;94592.84;;;5.96;88.83
61128;BME280;47013;42.664;23.242;2024-02-21T00:33:53;94599.72;;;5.94;88.60
61128;BME280;47013;42.664;23.242;2024-02-21T00:36:18;94587.41;;;5.93;88.98
61128;BME280;47013;42.664;23.242;2024-02-21T00:38:44;94586.75;;;5.99;89.21
61128;BME280;47013;42.664;23.242;2024-02-21T00:41:10;94586.41;;;6.01;88.73
61128;BME280;47013;42.664;23.242;2024-02-21T00:43:35;94585.97;;;5.99;88.26
61128;BME280;47013;42.664;23.242;2024-02-21T00:46:00;94577.84;;;5.95;88.59
61128;BME280;47013;42.664;23.242;2024-02-21T00:48:26;94578.56;;;5.92;88.53
61128;BME280;47013;42.664;23.242;2024-02-21T00:50:51;94581.66;;;5.94;88.91
61128;BME280;47013;42.664;23.242;2024-02-21T00:53:17;94579.75;;;5.95;88.65
61128;BME280;47013;42.664;23.242;2024-02-21T00:55:42;94575.50;;;5.94;88.39
61128;BME280;47013;42.664;23.242;2024-02-21T00:58:08;94573.31;;;5.99;88.57
61128;BME280;47013;42.664;23.242;2024-02-21T01:00:34;94568.69;;;6.00;88.46
61128;BME280;47013;42.664;23.242;2024-02-21T01:02:59;94565.66;;;6.01;87.75
61128;BME280;47013;42.664;23.242;2024-02-21T01:05:25;94562.19;;;6.01;88.09
61128;BME280;47013;42.664;23.242;2024-02-21T01:07:52;94559.31;;;5.90;88.49
61128;BME280;47013;42.664;23.242;2024-02-21T01:10:17;94563.19;;;5.93;88.56
61128;BME280;47013;42.664;23.242;2024-02-21T01:12:43;94550.13;;;5.95;88.20
61128;BME280;47013;42.664;23.242;2024-02-21T01:15:08;94556.25;;;5.91;87.97
61128;BME280;47013;42.664;23.242;2024-02-21T01:17:34;94559.22;;;5.86;87.83
61128;BME280;47013;42.664;23.242;2024-02-21T01:19:59;94553.41;;;5.84;88.18
61128;BME280;47013;42.664;23.242;2024-02-21T01:22:24;94559.22;;;5.86;87.79
61128;BME280;47013;42.664;23.242;2024-02-21T01:24:50;94554.19;;;5.85;88.09
61128;BME280;47013;42.664;23.242;2024-02-21T01:27:15;94554.06;;;5.78;87.98
61128;BME280;47013;42.664;23.242;2024-02-21T01:29:41;94554.13;;;5.81;88.46
61128;BME280;47013;42.664;23.242;2024-02-21T01:32:07;94552.25;;;5.85;88.62
61128;BME280;47013;42.664;23.242;2024-02-21T01:34:32;94546.41;;;5.80;87.81
61128;BME280;47013;42.664;23.242;2024-02-21T01:36:57;94552.88;;;5.75;87.93
61128;BME280;47013;42.664;23.242;2024-02-21T01:39:24;94550.66;;;5.35;89.36
61128;BME280;47013;42.664;23.242;2024-02-21T01:41:50;94545.09;;;5.47;89.28
61128;BME280;47013;42.664;23.242;2024-02-21T01:44:15;94547.84;;;5.51;89.12
61128;BME280;47013;42.664;23.242;2024-02-21T01:46:41;94541.19;;;5.45;89.76
61128;BME280;47013;42.664;23.242;2024-02-21T01:49:06;94543.63;;;5.50;89.10
61128;BME280;47013;42.664;23.242;2024-02-21T01:51:32;94537.50;;;5.53;88.41
61128;BME280;47013;42.664;23.242;2024-02-21T01:53:57;94533.81;;;5.61;88.11
61128;BME280;47013;42.664;23.242;2024-02-21T01:56:23;94532.53;;;5.32;89.21
61128;BME280;47013;42.664;23.242;2024-02-21T01:58:49;94539.69;;;5.24;90.16
61128;BME280;47013;42.664;23.242;2024-02-21T02:01:16;94538.41;;;5.38;89.64
61128;BME280;47013;42.664;23.242;2024-02-21T02:03:42;94534.16;;;5.37;89.11
61128;BME280;47013;42.664;23.242;2024-02-21T02:06:07;94540.44;;;5.44;88.74
61128;BME280;47013;42.664;23.242;2024-02-21T02:08:33;94535.13;;;5.48;88.49
61128;BME280;47013;42.664;23.242;2024-02-21T02:10:59;94538.94;;;5.47;88.28
61128;BME280;47013;42.664;23.242;2024-02-21T02:13:25;94537.47;;;5.49;88.83
61128;BME280;47013;42.664;23.242;2024-02-21T02:15:50;94532.59;;;5.58;88.41
61128;BME280;47013;42.664;23.242;2024-02-21T02:18:17;94536.56;;;5.65;87.91
61128;BME280;47013;42.664;23.242;2024-02-21T02:20:47;94527.75;;;5.68;87.96
61128;BME280;47013;42.664;23.242;2024-02-21T02:23:29;94525.75;;;5.61;88.20
61128;BME280;47013;42.664;23.242;2024-02-21T02:25:56;94531.53;;;5.63;88.47
61128;BME280;47013;42.664;23.242;2024-02-21T02:28:22;94508.94;;;5.45;88.66
61128;BME280;47013;42.664;23.242;2024-02-21T02:30:48;94520.41;;;5.42;89.02
61128;BME280;47013;42.664;23.242;2024-02-21T02:33:13;94520.28;;;5.35;89.41
61128;BME280;47013;42.664;23.242;2024-02-21T02:35:39;94513.34;;;5.33;89.23
61128;BME280;47013;42.664;23.242;2024-02-21T02:38:05;94513.34;;;5.33;89.16
61128;BME280;47013;42.664;23.242;2024-02-21T02:40:31;94514.19;;;5.38;88.76
61128;BME280;47013;42.664;23.242;2024-02-21T02:42:56;94503.13;;;5.43;87.97
61128;BME280;47013;42.664;23.242;2024-02-21T02:45:23;94507.09;;;5.49;87.88
61128;BME280;47013;42.664;23.242;2024-02-21T02:47:49;94507.84;;;5.26;88.69
61128;BME280;47013;42.664;23.242;2024-02-21T02:50:15;94514.06;;;5.30;88.80
61128;BME280;47013;42.664;23.242;2024-02-21T02:52:40;94511.50;;;5.38;88.57
61128;BME280;47013;42.664;23.242;2024-02-21T02:55:06;94524.28;;;5.44;88.30
61128;BME280;47013;42.664;23.242;2024-02-21T02:57:32;94521.91;;;5.39;88.40
61128;BME280;47013;42.664;23.242;2024-02-21T02:59:58;94528.88;;;5.44;88.43
61128;BME280;47013;42.664;23.242;2024-02-21T03:02:23;94517.13;;;5.52;88.40
61128;BME280;47013;42.664;23.242;2024-02-21T03:04:49;94518.69;;;5.53;88.31
61128;BME280;47013;42.664;23.242;2024-02-21T03:07:15;94520.91;;;5.47;88.13
61128;BME280;47013;42.664;23.242;2024-02-21T03:09:41;94517.59;;;5.35;88.63
61128;BME280;47013;42.664;23.242;2024-02-21T03:12:08;94520.56;;;5.29;88.70
61128;BME280;47013;42.664;23.242;2024-02-21T03:14:34;94526.16;;;5.40;88.87
61128;BME280;47013;42.664;23.242;2024-02-21T03:16:59;94528.63;;;5.49;88.15
61128;BME280;47013;42.664;23.242;2024-02-21T03:19:25;94525.63;;;5.54;87.95
61128;BME280;47013;42.664;23.242;2024-02-21T03:21:51;94536.38;;;5.54;87.68
61128;BME280;47013;42.664;23.242;2024-02-21T03:24:17;94527.56;;;5.57;87.78
61128;BME280;47013;42.664;23.242;2024-02-21T03:26:42;94538.06;;;5.62;87.06
61128;BME280;47013;42.664;23.242;2024-02-21T03:29:08;94528.00;;;5.59;86.87
61128;BME280;47013;42.664;23.242;2024-02-21T03:31:34;94530.28;;;5.57;87.18
61128;BME280;47013;42.664;23.242;2024-02-21T03:34:00;94536.06;;;5.59;86.97
61128;BME280;47013;42.664;23.242;2024-02-21T03:36:26;94537.19;;;5.58;87.46
61128;BME280;47013;42.664;23.242;2024-02-21T03:38:51;94536.50;;;5.61;87.27
61128;BME280;47013;42.664;23.242;2024-02-21T03:41:17;94541.13;;;5.60;86.96
61128;BME280;47013;42.664;23.242;2024-02-21T03:43:42;94554.19;;;5.62;86.71
61128;BME280;47013;42.664;23.242;2024-02-21T03:46:08;94552.97;;;5.59;87.06
61128;BME280;47013;42.664;23.242;2024-02-21T03:48:33;94547.97;;;5.58;87.03
61128;BME280;47013;42.664;23.242;2024-02-21T03:50:58;94548.69;;;5.55;87.31
61128;BME280;47013;42.664;23.242;2024-02-21T03:53:24;94554.91;;;5.59;87.10
61128;BME280;47013;42.664;23.242;2024-02-21T03:55:49;94545.88;;;5.48;87.42
61128;BME280;47013;42.664;23.242;2024-02-21T03:58:15;94546.00;;;5.55;87.44
61128;BME280;47013;42.664;23.242;2024-02-21T04:00:40;94547.47;;;5.29;88.20
61128;BME280;47013;42.664;23.242;2024-02-21T04:03:06;94549.00;;;5.30;88.53
61128;BME280;47013;42.664;23.242;2024-02-21T04:05:31;94549.94;;;5.38;88.33
61128;BME280;47013;42.664;23.242;2024-02-21T04:07:57;94545.09;;;5.47;87.95
61128;BME280;47013;42.664;23.242;2024-02-21T04:10:22;94541.97;;;5.45;87.61
61128;BME280;47013;42.664;23.242;2024-02-21T04:12:48;94545.16;;;5.51;87.50
61128;BME280;47013;42.664;23.242;2024-02-21T04:15:16;94548.63;;;5.51;86.91
61128;BME280;47013;42.664;23.242;2024-02-21T04:17:41;94541.56;;;5.43;86.92
61128;BME280;47013;42.664;23.242;2024-02-21T04:20:14;94533.13;;;5.22;88.07
61128;BME280;47013;42.664;23.242;2024-02-21T04:22:40;94537.13;;;5.31;87.98
61128;BME280;47013;42.664;23.242;2024-02-21T04:25:06;94537.63;;;5.37;87.49
61128;BME280;47013;42.664;23.242;2024-02-21T04:27:31;94539.66;;;5.44;87.18
61128;BME280;47013;42.664;23.242;2024-02-21T04:29:57;94541.69;;;5.50;86.97
61128;BME280;47013;42.664;23.242;2024-02-21T04:32:22;94537.88;;;5.51;86.25
61128;BME280;47013;42.664;23.242;2024-02-21T04:34:48;94535.13;;;5.48;86.21
61128;BME280;47013;42.664;23.242;2024-02-21T04:37:13;94541.63;;;5.47;85.64
61128;BME280;47013;42.664;23.242;2024-02-21T04:39:38;94536.69;;;5.49;85.31
61128;BME280;47013;42.664;23.242;2024-02-21T04:42:04;94540.19;;;5.53;84.92
61128;BME280;47013;42.664;23.242;2024-02-21T04:44:29;94544.38;;;5.50;84.91
61128;BME280;47013;42.664;23.242;2024-02-21T04:46:55;94535.91;;;5.48;84.42
61128;BME280;47013;42.664;23.242;2024-02-21T04:49:20;94547.00;;;5.47;84.53
61128;BME280;47013;42.664;23.242;2024-02-21T04:51:45;94543.00;;;5.37;84.73
61128;BME280;47013;42.664;23.242;2024-02-21T04:54:11;94551.34;;;5.32;84.10
61128;BME280;47013;42.664;23.242;2024-02-21T04:56:36;94551.34;;;5.32;84.07
61128;BME280;47013;42.664;23.242;2024-02-21T04:59:01;94549.44;;;5.32;84.46
61128;BME280;47013;42.664;23.242;2024-02-21T05:01:28;94546.75;;;5.32;84.30
61128;BME280;47013;42.664;23.242;2024-02-21T05:03:53;94547.19;;;5.35;83.73
61128;BME280;47013;42.664;23.242;2024-02-21T05:06:19;94549.44;;;5.32;83.24
61128;BME280;47013;42.664;23.242;2024-02-21T05:08:44;94554.81;;;5.32;83.23
61128;BME280;47013;42.664;23.242;2024-02-21T05:11:10;94553.97;;;5.28;83.27
61128;BME280;47013;42.664;23.242;2024-02-21T05:13:35;94565.09;;;5.27;83.41
61128;BME280;47013;42.664;23.242;2024-02-21T05:16:00;94562.75;;;5.25;83.22
61128;BME280;47013;42.664;23.242;2024-02-21T05:18:28;94563.13;;;5.24;83.54
61128;BME280;47013;42.664;23.242;2024-02-21T05:20:53;94568.50;;;5.24;83.66
61128;BME280;47013;42.664;23.242;2024-02-21T05:23:19;94566.44;;;5.17;83.82
61128;BME280;47013;42.664;23.242;2024-02-21T05:25:44;94565.59;;;5.13;83.88
61128;BME280;47013;42.664;23.242;2024-02-21T05:28:09;94564.47;;;5.14;84.44
61128;BME280;47013;42.664;23.242;2024-02-21T05:30:35;94566.44;;;5.17;84.58
61128;BME280;47013;42.664;23.242;2024-02-21T05:33:07;94565.38;;;5.22;84.55
61128;BME280;47013;42.664;23.242;2024-02-21T05:35:32;94565.09;;;5.27;84.52
61128;BME280;47013;42.664;23.242;2024-02-21T05:37:57;94553.25;;;5.31;84.64
61128;BME280;47013;42.664;23.242;2024-02-21T05:40:24;94571.31;;;5.31;84.67
61128;BME280;47013;42.664;23.242;2024-02-21T05:42:50;94558.72;;;5.35;84.97
61128;BME280;47013;42.664;23.242;2024-02-21T05:45:19;94567.91;;;5.34;84.57
61128;BME280;47013;42.664;23.242;2024-02-21T05:47:45;94570.38;;;5.43;84.83
61128;BME280;47013;42.664;23.242;2024-02-21T05:50:10;94572.00;;;5.47;84.59
61128;BME280;47013;42.664;23.242;2024-02-21T05:52:36;94572.53;;;5.56;84.34
61128;BME280;47013;42.664;23.242;2024-02-21T05:55:01;94569.72;;;5.49;84.41
61128;BME280;47013;42.664;23.242;2024-02-21T05:57:27;94575.88;;;5.50;84.73
61128;BME280;47013;42.664;23.242;2024-02-21T05:59:52;94578.00;;;5.60;84.57
61128;BME280;47013;42.664;23.242;2024-02-21T06:02:17;94579.09;;;5.59;84.07
61128;BME280;47013;42.664;23.242;2024-02-21T06:04:43;94591.88;;;5.62;84.01
61128;BME280;47013;42.664;23.242;2024-02-21T06:07:09;94590.72;;;5.63;84.31
61128;BME280;47013;42.664;23.242;2024-02-21T06:09:35;94584.00;;;5.53;84.31
61128;BME280;47013;42.664;23.242;2024-02-21T06:12:00;94589.81;;;5.55;84.19
61128;BME280;47013;42.664;23.242;2024-02-21T06:14:26;94590.53;;;5.52;84.89
61128;BME280;47013;42.664;23.242;2024-02-21T06:16:51;94595.75;;;5.45;85.42
61128;BME280;47013;42.664;23.242;2024-02-21T06:19:19;94592.13;;;5.57;84.76
61128;BME280;47013;42.664;23.242;2024-02-21T06:21:44;94594.59;;;5.66;83.65
61128;BME280;47013;42.664;23.242;2024-02-21T06:24:09;94599.00;;;5.54;84.73
61128;BME280;47013;42.664;23.242;2024-02-21T06:26:35;94597.25;;;5.62;84.65
61128;BME280;47013;42.664;23.242;2024-02-21T06:29:00;94610.38;;;5.67;84.73
61128;BME280;47013;42.664;23.242;2024-02-21T06:31:28;94610.22;;;5.79;83.72
61128;BME280;47013;42.664;23.242;2024-02-21T06:33:56;94606.38;;;5.80;83.64
61128;BME280;47013;42.664;23.242;2024-02-21T06:36:24;94606.16;;;5.89;83.93
61128;BME280;47013;42.664;23.242;2024-02-21T06:38:50;94606.63;;;5.91;83.41
61128;BME280;47013;42.664;23.242;2024-02-21T06:41:18;94605.28;;;6.04;83.06
61128;BME280;47013;42.664;23.242;2024-02-21T06:43:47;94616.66;;;6.17;82.95
61128;BME280;47013;42.664;23.242;2024-02-21T06:46:24;94614.97;;;6.32;82.30
61128;BME280;47013;42.664;23.242;2024-02-21T06:48:50;94620.47;;;6.39;82.59
61128;BME280;47013;42.664;23.242;2024-02-21T06:51:15;94629.06;;;6.48;81.25
61128;BME280;47013;42.664;23.242;2024-02-21T06:53:41;94625.66;;;6.51;81.25
61128;BME280;47013;42.664;23.242;2024-02-21T06:56:06;94617.66;;;6.58;81.23
61128;BME280;47013;42.664;23.242;2024-02-21T06:58:32;94623.50;;;6.64;80.73
61128;BME280;47013;42.664;23.242;2024-02-21T07:00:57;94620.47;;;6.65;80.70
61128;BME280;47013;42.664;23.242;2024-02-21T07:03:23;94623.25;;;6.72;79.85
61128;BME280;47013;42.664;23.242;2024-02-21T07:05:51;94619.41;;;6.73;80.47
61128;BME280;47013;42.664;23.242;2024-02-21T07:08:16;94623.31;;;6.76;79.60
61128;BME280;47013;42.664;23.242;2024-02-21T07:10:41;94628.06;;;6.86;80.03
61128;BME280;47013;42.664;23.242;2024-02-21T07:13:07;94626.72;;;6.73;79.41
61128;BME280;47013;42.664;23.242;2024-02-21T07:15:32;94620.31;;;6.81;79.86
61128;BME280;47013;42.664;23.242;2024-02-21T07:17:58;94624.97;;;6.84;80.02
61128;BME280;47013;42.664;23.242;2024-02-21T07:20:24;94620.19;;;6.74;80.81
61128;BME280;47013;42.664;23.242;2024-02-21T07:22:50;94632.28;;;6.84;80.70
61128;BME280;47013;42.664;23.242;2024-02-21T07:25:16;94630.09;;;6.93;79.86
61128;BME280;47013;42.664;23.242;2024-02-21T07:27:44;94633.47;;;6.86;80.42
61128;BME280;47013;42.664;23.242;2024-02-21T07:30:09;94636.25;;;6.93;80.77
61128;BME280;47013;42.664;23.242;2024-02-21T07:32:35;94634.06;;;7.02;80.54
61128;BME280;47013;42.664;23.242;2024-02-21T07:35:00;94632.56;;;7.05;80.34
61128;BME280;47013;42.664;23.242;2024-02-21T07:37:25;94631.06;;;7.07;80.15
61128;BME280;47013;42.664;23.242;2024-02-21T07:39:51;94630.66;;;7.05;79.14
61128;BME280;47013;42.664;23.242;2024-02-21T07:42:16;94623.81;;;7.15;79.72
61128;BME280;47013;42.664;23.242;2024-02-21T07:44:42;94636.25;;;7.23;78.94
61128;BME280;47013;42.664;23.242;2024-02-21T07:47:07;94629.81;;;7.31;78.75
61128;BME280;47013;42.664;23.242;2024-02-21T07:49:33;94629.91;;;7.38;78.81
61128;BME280;47013;42.664;23.242;2024-02-21T07:52:00;94638.28;;;7.30;78.27
61128;BME280;47013;42.664;23.242;2024-02-21T07:54:26;94637.81;;;7.24;78.28
61128;BME280;47013;42.664;23.242;2024-02-21T07:56:51;94625.09;;;7.25;79.05
61128;BME280;47013;42.664;23.242;2024-02-21T07:59:16;94625.91;;;7.29;78.57
61128;BME280;47013;42.664;23.242;2024-02-21T08:01:42;94631.75;;;7.31;78.78
61128;BME280;47013;42.664;23.242;2024-02-21T08:04:08;94622.56;;;7.39;78.85
61128;BME280;47013;42.664;23.242;2024-02-21T08:06:33;94628.91;;;7.54;78.93
61128;BME280;47013;42.664;23.242;2024-02-21T08:08:59;94627.44;;;7.60;78.08
61128;BME280;47013;42.664;23.242;2024-02-21T08:11:25;94627.34;;;7.53;77.93
61128;BME280;47013;42.664;23.242;2024-02-21T08:13:51;94630.28;;;7.40;77.37
61128;BME280;47013;42.664;23.242;2024-02-21T08:16:16;94625.66;;;7.37;76.97
61128;BME280;47013;42.664;23.242;2024-02-21T08:18:44;94616.13;;;7.47;77.27
61128;BME280;47013;42.664;23.242;2024-02-21T08:21:09;94618.88;;;7.54;76.71
61128;BME280;47013;42.664;23.242;2024-02-21T08:23:34;94617.50;;;7.67;75.90
61128;BME280;47013;42.664;23.242;2024-02-21T08:26:03;94619.25;;;7.86;75.75
61128;BME280;47013;42.664;23.242;2024-02-21T08:28:28;94622.84;;;7.64;75.23
61128;BME280;47013;42.664;23.242;2024-02-21T08:30:54;94619.81;;;7.32;75.81
61128;BME280;47013;42.664;23.242;2024-02-21T08:33:19;94616.56;;;7.19;77.12
61128;BME280;47013;42.664;23.242;2024-02-21T08:35:49;94620.53;;;6.99;78.13
61128;BME280;47013;42.664;23.242;2024-02-21T08:38:15;94616.69;;;7.00;78.02
61128;BME280;47013;42.664;23.242;2024-02-21T08:40:40;94618.31;;;7.04;77.57
61128;BME280;47013;42.664;23.242;2024-02-21T08:43:05;94615.28;;;7.09;76.42
61128;BME280;47013;42.664;23.242;2024-02-21T08:45:30;94613.81;;;7.16;74.88
61128;BME280;47013;42.664;23.242;2024-02-21T08:47:56;94616.00;;;7.36;75.32
61128;BME280;47013;42.664;23.242;2024-02-21T08:50:21;94625.81;;;7.52;73.44
61128;BME280;47013;42.664;23.242;2024-02-21T08:52:47;94615.50;;;7.61;74.57
61128;BME280;47013;42.664;23.242;2024-02-21T08:55:12;94622.56;;;7.73;73.98
61128;BME280;47013;42.664;23.242;2024-02-21T08:57:37;94626.97;;;7.88;74.07
61128;BME280;47013;42.664;23.242;2024-02-21T09:00:04;94632.84;;;7.97;72.86
61128;BME280;47013;42.664;23.242;2024-02-21T09:02:35;94630.25;;;8.08;72.51
61128;BME280;47013;42.664;23.242;2024-02-21T09:05:02;94631.06;;;8.15;71.88
61128;BME280;47013;42.664;23.242;2024-02-21T09:07:27;94638.47;;;8.22;71.89
61128;BME280;47013;42.664;23.242;2024-02-21T09:09:52;94632.66;;;8.20;71.71
61128;BME280;47013;42.664;23.242;2024-02-21T09:12:18;94636.19;;;8.24;71.53
61128;BME280;47013;42.664;23.242;2024-02-21T09:14:43;94641.72;;;8.38;71.95
61128;BME280;47013;42.664;23.242;2024-02-21T09:17:09;94641.72;;;8.38;71.34
61128;BME280;47013;42.664;23.242;2024-02-21T09:19:35;94635.19;;;8.43;72.07
61128;BME280;47013;42.664;23.242;2024-02-21T09:22:00;94627.91;;;8.47;70.72
61128;BME280;47013;42.664;23.242;2024-02-21T09:24:25;94625.63;;;8.52;69.98
61128;BME280;47013;42.664;23.242;2024-02-21T09:26:51;94629.09;;;8.49;69.66
61128;BME280;47013;42.664;23.242;2024-02-21T09:29:16;94623.28;;;8.47;70.45
61128;BME280;47013;42.664;23.242;2024-02-21T09:31:42;94627.97;;;8.57;70.49
61128;BME280;47013;42.664;23.242;2024-02-21T09:34:07;94630.28;;;8.55;69.66
61128;BME280;47013;42.664;23.242;2024-02-21T09:36:32;94627.66;;;8.70;69.45
61128;BME280;47013;42.664;23.242;2024-02-21T09:38:58;94619.91;;;8.61;68.94
61128;BME280;47013;42.664;23.242;2024-02-21T09:41:27;94631.16;;;8.70;69.07
61128;BME280;47013;42.664;23.242;2024-02-21T09:43:53;94636.22;;;8.75;69.46
61128;BME280;47013;42.664;23.242;2024-02-21T09:51:39;94624.44;;;8.50;72.86
61128;BME280;47013;42.664;23.242;2024-02-21T09:54:08;94629.19;;;8.64;72.38
61128;BME280;47013;42.664;23.242;2024-02-21T09:56:36;94627.19;;;8.57;69.27
61128;BME280;47013;42.664;23.242;2024-02-21T09:59:02;94629.16;;;8.60;70.17
61128;BME280;47013;42.664;23.242;2024-02-21T10:01:31;94627.28;;;8.71;69.66
61128;BME280;47013;42.664;23.242;2024-02-21T10:03:57;94628.53;;;8.84;68.25
61128;BME280;47013;42.664;23.242;2024-02-21T10:06:22;94624.34;;;8.98;66.54
61128;BME280;47013;42.664;23.242;2024-02-21T10:08:54;94625.56;;;9.07;65.83
61128;BME280;47013;42.664;23.242;2024-02-21T10:11:23;94619.06;;;9.23;65.65
61128;BME280;47013;42.664;23.242;2024-02-21T10:13:49;94627.31;;;9.48;64.88
61128;BME280;47013;42.664;23.242;2024-02-21T10:16:15;94619.22;;;9.58;64.26
61128;BME280;47013;42.664;23.242;2024-02-21T10:18:40;94606.84;;;9.54;63.06
61128;BME280;47013;42.664;23.242;2024-02-21T10:21:07;94604.16;;;9.57;63.36
61128;BME280;47013;42.664;23.242;2024-02-21T10:23:46;94613.47;;;9.74;63.75
61128;BME280;47013;42.664;23.242;2024-02-21T10:26:12;94606.88;;;9.71;62.58
61128;BME280;47013;42.664;23.242;2024-02-21T10:28:38;94607.31;;;9.88;62.89
61128;BME280;47013;42.664;23.242;2024-02-21T10:31:11;94592.63;;;9.96;60.76
61128;BME280;47013;42.664;23.242;2024-02-21T10:33:37;94583.41;;;10.29;59.99
61128;BME280;47013;42.664;23.242;2024-02-21T10:36:12;94567.88;;;10.65;59.75
61128;BME280;47013;42.664;23.242;2024-02-21T10:38:38;94567.47;;;10.74;57.34
61128;BME280;47013;42.664;23.242;2024-02-21T10:41:07;94563.53;;;10.92;56.84
61128;BME280;47013;42.664;23.242;2024-02-21T10:43:48;94561.81;;;11.48;54.63
61128;BME280;47013;42.664;23.242;2024-02-21T10:46:15;94555.44;;;11.76;51.97
61128;BME280;47013;42.664;23.242;2024-02-21T10:48:44;94553.75;;;11.97;50.57
61128;BME280;47013;42.664;23.242;2024-02-21T10:51:18;94556.09;;;12.47;50.82
61128;BME280;47013;42.664;23.242;2024-02-21T10:59:00;94542.69;;;13.08;48.75
61128;BME280;47013;42.664;23.242;2024-02-21T11:01:26;94536.63;;;12.93;47.75
61128;BME280;47013;42.664;23.242;2024-02-21T11:03:55;94534.00;;;12.82;47.80
61128;BME280;47013;42.664;23.242;2024-02-21T11:06:21;94523.41;;;12.54;47.84
61128;BME280;47013;42.664;23.242;2024-02-21T11:08:47;94523.88;;;12.45;48.11
61128;BME280;47013;42.664;23.242;2024-02-21T11:11:14;94523.22;;;12.30;48.06
61128;BME280;47013;42.664;23.242;2024-02-21T11:13:42;94527.22;;;12.19;49.08
61128;BME280;47013;42.664;23.242;2024-02-21T11:16:20;94511.09;;;11.94;49.52
61128;BME280;47013;42.664;23.242;2024-02-21T11:18:46;94524.38;;;11.81;48.74
61128;BME280;47013;42.664;23.242;2024-02-21T11:21:11;94523.25;;;11.71;49.54
61128;BME280;47013;42.664;23.242;2024-02-21T11:23:37;94522.31;;;11.30;49.43
61128;BME280;47013;42.664;23.242;2024-02-21T11:26:09;94526.31;;;11.07;48.88
61128;BME280;47013;42.664;23.242;2024-02-21T11:28:35;94517.81;;;10.91;50.19
61128;BME280;47013;42.664;23.242;2024-02-21T11:31:08;94512.41;;;10.80;50.84
61128;BME280;47013;42.664;23.242;2024-02-21T11:33:34;94517.47;;;10.78;51.51
61128;BME280;47013;42.664;23.242;2024-02-21T11:36:01;94510.13;;;10.75;52.30
61128;BME280;47013;42.664;23.242;2024-02-21T11:38:26;94514.03;;;10.63;52.13
61128;BME280;47013;42.664;23.242;2024-02-21T11:40:52;94506.72;;;10.43;52.80
61128;BME280;47013;42.664;23.242;2024-02-21T11:43:17;94510.59;;;10.34;53.09
61128;BME280;47013;42.664;23.242;2024-02-21T11:45:42;94504.78;;;10.32;53.56
61128;BME280;47013;42.664;23.242;2024-02-21T11:48:08;94501.31;;;10.21;52.74
61128;BME280;47013;42.664;23.242;2024-02-21T11:50:36;94497.81;;;10.10;53.38
61128;BME280;47013;42.664;23.242;2024-02-21T11:53:04;94498.19;;;10.01;53.83
61128;BME280;47013;42.664;23.242;2024-02-21T11:55:29;94494.34;;;9.92;53.91
61128;BME280;47013;42.664;23.242;2024-02-21T11:57:55;94494.31;;;9.88;54.21
61128;BME280;47013;42.664;23.242;2024-02-21T12:00:21;94499.34;;;9.75;54.86
61128;BME280;47013;42.664;23.242;2024-02-21T12:02:46;94492.38;;;9.60;54.57
61128;BME280;47013;42.664;23.242;2024-02-21T12:05:12;94497.78;;;9.53;55.52
61128;BME280;47013;42.664;23.242;2024-02-21T12:07:39;94481.13;;;9.48;56.24
61128;BME280;47013;42.664;23.242;2024-02-21T12:10:11;94488.09;;;9.49;57.18
61128;BME280;47013;42.664;23.242;2024-02-21T12:12:37;94483.84;;;9.44;57.75
61128;BME280;47013;42.664;23.242;2024-02-21T12:15:04;94487.34;;;9.52;58.18
61128;BME280;47013;42.664;23.242;2024-02-21T12:17:32;94490.06;;;9.52;58.87
61128;BME280;47013;42.664;23.242;2024-02-21T12:19:58;94484.22;;;9.46;59.22
61128;BME280;47013;42.664;23.242;2024-02-21T12:22:25;94483.06;;;9.36;57.58
61128;BME280;47013;42.664;23.242;2024-02-21T12:24:50;94478.81;;;9.25;57.90
61128;BME280;47013;42.664;23.242;2024-02-21T12:27:15;94476.09;;;9.32;58.44
61128;BME280;47013;42.664;23.242;2024-02-21T12:29:41;94478.41;;;9.33;58.56
61128;BME280;47013;42.664;23.242;2024-02-21T12:32:06;94485.75;;;9.33;59.18
61128;BME280;47013;42.664;23.242;2024-02-21T12:34:31;94477.25;;;9.34;59.42
61128;BME280;47013;42.664;23.242;2024-02-21T12:36:58;94483.41;;;9.24;60.14
61128;BME280;47013;42.664;23.242;2024-02-21T12:39:24;94485.34;;;9.16;61.17
61128;BME280;47013;42.664;23.242;2024-02-21T12:41:49;94477.59;;;9.19;60.92
61128;BME280;47013;42.664;23.242;2024-02-21T12:44:15;94467.97;;;9.25;61.37
61128;BME280;47013;42.664;23.242;2024-02-21T12:46:42;94470.28;;;9.30;61.59
61128;BME280;47013;42.664;23.242;2024-02-21T12:49:07;94472.22;;;9.29;61.77
61128;BME280;47013;42.664;23.242;2024-02-21T12:51:33;94470.72;;;9.39;61.28
61128;BME280;47013;42.664;23.242;2024-02-21T12:53:59;94459.84;;;9.25;61.39
61128;BME280;47013;42.664;23.242;2024-02-21T12:56:25;94456.00;;;9.36;61.59
61128;BME280;47013;42.664;23.242;2024-02-21T12:58:54;94454.09;;;9.51;62.01
61128;BME280;47013;42.664;23.242;2024-02-21T13:01:20;94453.69;;;9.56;57.58
61128;BME280;47013;42.664;23.242;2024-02-21T13:03:46;94446.75;;;9.52;57.12
61128;BME280;47013;42.664;23.242;2024-02-21T13:06:12;94456.00;;;9.61;56.83